Terminal Aerodrome Forecast
Issued by NWS Quad Cities IA IL

Home | Current Version | Previous Version | Text Only | Print | Product List | Glossary On
Versions: 1 2 3 4 5 6 7 8 9 10 11 12 13 14 15 16 17 18
000
FTUS43 KDVN 172300
TAFMLI
TAF
KMLI 172327Z 1800/1824 29015KT P6SM OVC035
     FM180400 30008KT P6SM OVC025
     FM181600 33009KT P6SM BKN035
     FM181900 34006KT P6SM SCT060=

USA.gov is the U.S. government's official web portal to all federal, state and local government web resources and services.